Arnett, West Virginia
Current Conditions -  °F | °C
As of 5:51 PM on Thursday 23 Oct 2014 (Local Time) from KBKW Reporting Station
Overcast Overcast  
Wind Chill:   Ceiling: 2000
Heat Index:   Visibility: 10mi
Dew Point:   Wind: 8mph
Humidity: 71%   Direction: 330°NNW
Pressure: 30.11"   Gusts: NA
Location:  37.83°N, 81.43°W
Report Text: KBKW 232151Z AUTO 33007KT 10SM OVC020 09/04 A3011 RMK AO2 SLP201 T00890039 TSNO
Loading
Personal Weather Stations






























Interactive Weather Map
Tropical Storm Tracking
New forecast layout! Learn more

10-Day Weather Forecast

Advertisements
Track Severe Weather on mobile